createdAt,value
2018-03-25T00:01:43.118Z,96734.13
2018-03-25T00:04:10.930Z,96734.64
2018-03-25T00:06:38.983Z,96731.65
2018-03-25T00:09:07.425Z,96735.05
2018-03-25T00:11:35.579Z,96738.56
2018-03-25T00:14:03.983Z,96735.09
2018-03-25T00:16:32.715Z,96734.20
2018-03-25T00:19:00.811Z,96735.50
2018-03-25T00:21:28.559Z,96735.64
2018-03-25T00:23:56.110Z,96737.31
2018-03-25T00:26:24.253Z,96736.95
2018-03-25T00:28:52.169Z,96742.58
2018-03-25T00:31:19.863Z,96743.42
2018-03-25T00:33:47.464Z,96750.00
2018-03-25T00:36:15.295Z,96745.91
2018-03-25T00:38:42.919Z,96750.16
2018-03-25T00:41:10.658Z,96744.06
2018-03-25T00:43:38.209Z,96750.76
2018-03-25T00:46:06.124Z,96747.66
2018-03-25T00:48:34.373Z,96754.20
2018-03-25T00:51:01.955Z,96755.61
2018-03-25T00:53:29.892Z,96757.86
2018-03-25T00:55:57.609Z,96761.03
2018-03-25T00:58:26.203Z,96765.69
2018-03-25T01:00:54.181Z,96761.48
2018-03-25T01:03:22.561Z,96765.64
2018-03-25T01:05:50.847Z,96763.61
2018-03-25T01:08:18.905Z,96757.51
2018-03-25T01:10:47.174Z,96754.20
2018-03-25T01:13:15.326Z,96758.72
2018-03-25T01:15:55.294Z,96754.50
2018-03-25T01:18:23.964Z,96758.47
2018-03-25T01:20:52.842Z,96759.48
2018-03-25T01:23:20.835Z,96771.27
2018-03-25T01:25:48.864Z,96766.25
2018-03-25T01:28:16.619Z,96774.12
2018-03-25T01:30:44.470Z,96773.30
2018-03-25T01:33:12.464Z,96775.70
2018-03-25T01:35:40.225Z,96778.73
2018-03-25T01:38:08.145Z,96771.31
2018-03-25T01:40:36.126Z,96766.25
2018-03-25T01:43:04.139Z,96773.02
2018-03-25T01:45:32.005Z,96773.51
2018-03-25T01:47:59.676Z,96771.81
2018-03-25T01:50:27.779Z,96772.49
2018-03-25T01:52:55.511Z,96777.11
2018-03-25T01:55:23.418Z,96771.97
2018-03-25T01:57:51.617Z,96774.86
2018-03-25T02:00:19.294Z,96771.98
2018-03-25T02:02:47.480Z,96770.13
2018-03-25T02:05:15.288Z,96768.98
2018-03-25T02:07:43.581Z,96768.73
2018-03-25T02:10:11.367Z,96765.28
2018-03-25T02:12:39.424Z,96766.01
2018-03-25T02:15:08.295Z,96772.11
2018-03-25T02:17:36.164Z,96764.58
2018-03-25T02:20:04.234Z,96761.21
2018-03-25T02:22:32.389Z,96765.59
2018-03-25T02:25:00.010Z,96762.27
2018-03-25T02:27:27.695Z,96762.13
2018-03-25T02:29:55.976Z,96766.95
2018-03-25T02:32:24.502Z,96771.03
2018-03-25T02:34:52.640Z,96761.63
2018-03-25T02:37:20.744Z,96771.44
2018-03-25T02:39:48.684Z,96767.96
2018-03-25T02:42:16.418Z,96770.92
2018-03-25T02:44:44.150Z,96769.87
2018-03-25T02:47:12.329Z,96776.31
2018-03-25T02:49:39.969Z,96783.97
2018-03-25T02:52:08.738Z,96788.02
2018-03-25T02:54:36.606Z,96793.55
2018-03-25T02:57:04.581Z,96791.17
2018-03-25T02:59:32.240Z,96799.48
2018-03-25T03:02:00.408Z,96795.25
2018-03-25T03:04:28.544Z,96791.22
2018-03-25T03:06:57.012Z,96794.59
2018-03-25T03:09:25.645Z,96795.22
2018-03-25T03:11:53.886Z,96797.17
2018-03-25T03:14:22.489Z,96799.39
2018-03-25T03:16:50.606Z,96789.00
2018-03-25T03:19:18.324Z,96788.80
2018-03-25T03:21:46.501Z,96792.51
2018-03-25T03:24:14.340Z,96794.30
2018-03-25T03:26:42.203Z,96793.41
2018-03-25T03:29:10.425Z,96794.30
2018-03-25T03:31:38.398Z,96797.92
2018-03-25T03:34:06.474Z,96799.68
2018-03-25T03:36:34.099Z,96803.34
2018-03-25T03:39:02.091Z,96803.75
2018-03-25T03:41:29.848Z,96794.33
2018-03-25T03:43:57.531Z,96796.38
2018-03-25T03:46:25.216Z,96793.63
2018-03-25T03:48:53.354Z,96796.28
2018-03-25T03:51:21.664Z,96794.75
2018-03-25T03:53:49.199Z,96797.45
2018-03-25T03:56:17.016Z,96797.42
2018-03-25T03:58:45.038Z,96803.34
2018-03-25T04:01:13.215Z,96801.24
2018-03-25T04:03:40.980Z,96807.79
2018-03-25T04:06:08.655Z,96793.36
2018-03-25T04:08:36.504Z,96805.75
2018-03-25T04:11:04.633Z,96813.28
2018-03-25T04:13:32.461Z,96807.69
2018-03-25T04:16:01.123Z,96811.48
2018-03-25T04:18:29.563Z,96813.94
2018-03-25T04:20:57.539Z,96816.44
2018-03-25T04:23:25.197Z,96809.31
2018-03-25T04:25:52.974Z,96814.89
2018-03-25T04:28:21.300Z,96816.35
2018-03-25T04:30:49.477Z,96816.61
2018-03-25T04:33:17.118Z,96824.67
2018-03-25T04:35:44.665Z,96827.83
2018-03-25T04:38:12.549Z,96823.59
2018-03-25T04:40:40.665Z,96826.17
2018-03-25T04:43:08.765Z,96829.00
2018-03-25T04:45:36.500Z,96831.83
2018-03-25T04:48:04.705Z,96831.94
2018-03-25T04:50:32.864Z,96835.84
2018-03-25T04:53:00.536Z,96828.08
2018-03-25T04:55:28.381Z,96832.05
2018-03-25T04:57:57.095Z,96835.87
2018-03-25T05:00:24.965Z,96833.92
2018-03-25T05:02:52.899Z,96836.53
2018-03-25T05:05:21.134Z,96836.13
2018-03-25T05:07:48.995Z,96835.62
2018-03-25T05:10:17.077Z,96847.05
2018-03-25T05:12:44.975Z,96841.23
2018-03-25T05:15:14.165Z,96844.55
2018-03-25T05:17:41.751Z,96851.13
2018-03-25T05:20:09.874Z,96852.04
2018-03-25T05:22:38.905Z,96855.16
2018-03-25T05:25:06.868Z,96849.45
2018-03-25T05:27:34.570Z,96849.81
2018-03-25T05:30:02.274Z,96857.89
2018-03-25T05:32:30.071Z,96857.22
2018-03-25T05:34:57.792Z,96852.15
2018-03-25T05:37:25.724Z,96863.23
2018-03-25T05:39:53.330Z,96867.72
2018-03-25T05:42:21.321Z,96868.22
2018-03-25T05:44:49.246Z,96876.77
2018-03-25T05:47:17.189Z,96875.77
2018-03-25T05:49:45.295Z,96875.97
2018-03-25T05:52:12.870Z,96880.24
2018-03-25T05:54:40.994Z,96887.77
2018-03-25T05:57:08.841Z,96890.97
2018-03-25T05:59:36.520Z,96885.63
2018-03-25T06:02:04.135Z,96885.38
2018-03-25T06:04:32.134Z,96896.03
2018-03-25T06:07:00.318Z,96897.47
2018-03-25T06:09:29.478Z,96902.75
2018-03-25T06:11:57.628Z,96900.58
2018-03-25T06:14:25.781Z,96909.43
2018-03-25T06:16:53.619Z,96906.73
2018-03-25T06:19:21.726Z,96904.17
2018-03-25T06:21:49.693Z,96907.72
2018-03-25T06:24:17.543Z,96906.61
2018-03-25T06:26:45.839Z,96917.89
2018-03-25T06:29:13.784Z,96917.09
2018-03-25T06:31:41.544Z,96911.25
2018-03-25T06:34:10.030Z,96914.16
2018-03-25T06:36:38.006Z,96919.08
2018-03-25T06:39:06.235Z,96921.16
2018-03-25T06:41:34.709Z,96924.31
2018-03-25T06:44:02.555Z,96931.14
2018-03-25T06:46:30.589Z,96927.69
2018-03-25T06:48:58.415Z,96933.36
2018-03-25T06:51:26.521Z,96943.17
2018-03-25T06:53:54.310Z,96934.47
2018-03-25T06:56:22.078Z,96939.80
2018-03-25T06:58:50.043Z,96946.57
2018-03-25T07:01:17.941Z,96946.30
2018-03-25T07:03:45.830Z,96956.06
2018-03-25T07:06:14.319Z,96949.12
2018-03-25T07:08:42.431Z,96951.54
2018-03-25T07:11:10.180Z,96953.16
2018-03-25T07:13:38.218Z,96951.41
2018-03-25T07:16:05.960Z,96959.37
2018-03-25T07:18:33.890Z,96963.55
2018-03-25T07:21:01.668Z,96965.04
2018-03-25T07:23:29.725Z,96962.22
2018-03-25T07:25:57.956Z,96964.64
2018-03-25T07:28:25.786Z,96970.14
2018-03-25T07:30:53.905Z,96964.62
2018-03-25T07:33:21.691Z,96968.59
2018-03-25T07:35:49.530Z,96969.06
2018-03-25T07:38:17.465Z,96973.04
2018-03-25T07:40:45.620Z,96968.09
2018-03-25T07:43:13.799Z,96979.94
2018-03-25T07:45:42.178Z,96984.94
2018-03-25T07:48:10.095Z,96976.60
2018-03-25T07:50:37.760Z,96986.38
2018-03-25T07:53:05.540Z,96981.44
2018-03-25T07:55:33.238Z,96986.83
2018-03-25T07:58:01.604Z,96988.50
2018-03-25T08:00:30.184Z,96989.14
2018-03-25T08:02:58.345Z,96994.31
2018-03-25T08:05:26.052Z,96990.70
2018-03-25T08:07:54.070Z,96993.14
2018-03-25T08:10:22.419Z,96994.83
2018-03-25T08:12:50.454Z,96990.67
2018-03-25T08:15:18.305Z,96990.35
2018-03-25T08:17:46.521Z,96996.31
2018-03-25T08:20:15.023Z,96993.62
2018-03-25T08:22:42.610Z,96993.07
2018-03-25T08:25:10.376Z,97004.74
2018-03-25T08:27:38.218Z,96999.06
2018-03-25T08:30:06.357Z,97006.72
2018-03-25T08:32:34.400Z,97001.47
2018-03-25T08:35:02.321Z,96999.09
2018-03-25T08:37:32.067Z,96996.74
2018-03-25T08:39:59.960Z,97000.32
2018-03-25T08:42:28.421Z,97001.78
2018-03-25T08:44:56.640Z,96999.20
2018-03-25T08:47:24.545Z,96995.36
2018-03-25T08:49:53.063Z,96995.81
2018-03-25T08:52:21.173Z,96997.66
2018-03-25T08:54:49.305Z,96991.97
2018-03-25T08:57:18.079Z,96997.50
2018-03-25T08:59:46.130Z,97007.27
2018-03-25T09:02:14.309Z,96995.99
2018-03-25T09:04:42.205Z,97002.39
2018-03-25T09:07:10.044Z,97003.22
2018-03-25T09:09:37.954Z,97000.88
2018-03-25T09:12:05.614Z,97000.23
2018-03-25T09:14:33.434Z,97000.73
2018-03-25T09:17:01.489Z,97002.64
2018-03-25T09:19:29.571Z,97006.95
2018-03-25T09:21:57.826Z,96997.66
2018-03-25T09:24:25.553Z,97005.16
2018-03-25T09:26:53.098Z,97003.57
2018-03-25T09:29:20.964Z,97006.84
2018-03-25T09:31:49.873Z,97005.06
2018-03-25T09:34:17.940Z,97008.85
2018-03-25T09:36:45.883Z,97011.83
2018-03-25T09:39:14.125Z,97014.19
2018-03-25T09:41:42.310Z,97002.83
2018-03-25T09:44:10.701Z,97009.75
2018-03-25T09:46:39.620Z,97004.52
2018-03-25T09:49:07.559Z,97009.83
2018-03-25T09:51:35.755Z,97004.87
2018-03-25T09:54:03.330Z,97009.62
2018-03-25T09:56:31.055Z,97000.43
2018-03-25T09:58:58.996Z,97009.05
2018-03-25T10:01:39.554Z,97010.42
2018-03-25T10:04:07.215Z,97017.16
2018-03-25T10:06:35.572Z,97016.79
2018-03-25T10:09:04.120Z,97017.47
2018-03-25T10:11:31.904Z,97015.23
2018-03-25T10:13:59.674Z,97012.34
2018-03-25T10:16:27.465Z,97020.95
2018-03-25T10:18:55.664Z,97019.21
2018-03-25T10:21:23.685Z,97019.78
2018-03-25T10:23:51.842Z,97029.61
2018-03-25T10:26:20.369Z,97022.51
2018-03-25T10:28:48.302Z,97018.83
2018-03-25T10:31:16.545Z,97021.31
2018-03-25T10:33:44.308Z,97023.36
2018-03-25T10:36:12.558Z,97023.11
2018-03-25T10:38:40.496Z,97012.14
2018-03-25T10:41:08.459Z,97012.41
2018-03-25T10:43:36.403Z,97016.31
2018-03-25T10:46:04.435Z,97014.08
2018-03-25T10:48:32.865Z,97006.06
2018-03-25T10:51:00.902Z,97011.91
2018-03-25T10:53:28.639Z,97014.16
2018-03-25T10:55:56.604Z,97013.49
2018-03-25T10:58:24.892Z,97010.39
2018-03-25T11:00:52.960Z,96997.22
2018-03-25T11:03:20.514Z,97005.73
2018-03-25T11:05:48.809Z,97001.09
2018-03-25T11:08:16.502Z,97006.48
2018-03-25T11:10:44.092Z,97003.50
2018-03-25T11:13:11.883Z,97005.48
2018-03-25T11:15:39.698Z,97001.56
2018-03-25T11:18:07.671Z,96995.92
2018-03-25T11:20:35.713Z,96991.63
2018-03-25T11:23:03.573Z,96994.78
2018-03-25T11:25:31.357Z,96983.06
2018-03-25T11:27:59.448Z,96993.30
2018-03-25T11:30:27.283Z,96991.85
2018-03-25T11:32:55.059Z,96992.17
2018-03-25T11:35:22.623Z,96989.56
2018-03-25T11:37:50.407Z,96993.48
2018-03-25T11:40:18.169Z,96990.37
2018-03-25T11:42:45.992Z,96991.33
2018-03-25T11:45:14.073Z,96992.56
2018-03-25T11:47:42.123Z,96991.61
2018-03-25T11:50:09.770Z,96992.59
2018-03-25T11:52:38.587Z,96989.69
2018-03-25T11:55:07.459Z,97000.64
2018-03-25T11:57:35.102Z,96995.94
2018-03-25T12:00:02.804Z,96988.22
2018-03-25T12:02:30.611Z,96989.20
2018-03-25T12:04:58.552Z,96992.38
2018-03-25T12:07:26.179Z,96987.27
2018-03-25T12:09:54.129Z,96979.82
2018-03-25T12:12:22.073Z,96980.80
2018-03-25T12:14:50.153Z,96975.59
2018-03-25T12:17:17.988Z,96980.18
2018-03-25T12:19:45.875Z,96981.02
2018-03-25T12:22:13.734Z,96984.70
2018-03-25T12:24:41.272Z,96987.52
2018-03-25T12:27:09.059Z,96986.55
2018-03-25T12:29:36.791Z,96982.33
2018-03-25T12:32:04.754Z,96985.74
2018-03-25T12:34:32.613Z,96986.25
2018-03-25T12:37:00.893Z,96984.63
2018-03-25T12:39:28.703Z,96973.00
2018-03-25T12:41:56.565Z,96973.39
2018-03-25T12:44:24.532Z,96973.38
2018-03-25T12:46:52.624Z,96968.88
2018-03-25T12:49:20.771Z,96962.64
2018-03-25T12:51:49.365Z,96976.02
2018-03-25T12:54:17.660Z,96974.41
2018-03-25T12:56:45.538Z,96974.58
2018-03-25T12:59:13.356Z,96973.73
2018-03-25T13:01:41.405Z,96968.41
2018-03-25T13:04:09.579Z,96972.80
2018-03-25T13:06:37.476Z,96971.11
2018-03-25T13:09:05.532Z,96970.41
2018-03-25T13:11:33.369Z,96975.50
2018-03-25T13:14:01.972Z,96974.49
2018-03-25T13:16:30.060Z,96979.95
2018-03-25T13:18:58.309Z,96971.79
2018-03-25T13:21:26.754Z,96970.95
2018-03-25T13:23:54.515Z,96970.11
2018-03-25T13:26:22.584Z,96971.45
2018-03-25T13:28:50.742Z,96974.41
2018-03-25T13:31:18.683Z,96976.28
2018-03-25T13:33:46.537Z,96966.74
2018-03-25T13:36:14.349Z,96971.30
2018-03-25T13:38:42.369Z,96974.19
2018-03-25T13:41:10.178Z,96962.37
2018-03-25T13:43:37.864Z,96974.31
2018-03-25T13:46:05.739Z,96967.99
2018-03-25T13:48:33.472Z,96970.80
2018-03-25T13:51:07.370Z,96971.33
2018-03-25T13:53:35.320Z,96974.53
2018-03-25T13:56:03.035Z,96970.53
2018-03-25T13:58:30.831Z,96973.98
2018-03-25T14:00:58.548Z,96974.25
2018-03-25T14:03:28.102Z,96968.00
2018-03-25T14:05:55.774Z,96969.50
2018-03-25T14:08:24.238Z,96967.03
2018-03-25T14:10:51.969Z,96969.61
2018-03-25T14:13:20.128Z,96976.80
2018-03-25T14:15:47.914Z,96967.09
2018-03-25T14:18:16.113Z,96973.73
2018-03-25T14:20:44.285Z,96972.57
2018-03-25T14:23:12.455Z,96968.23
2018-03-25T14:25:40.945Z,96972.89
2018-03-25T14:28:10.426Z,96962.34
2018-03-25T14:30:38.242Z,96972.34
2018-03-25T14:33:06.095Z,96966.72
2018-03-25T14:35:33.689Z,96969.69
2018-03-25T14:38:01.380Z,96969.83
2018-03-25T14:40:29.203Z,96969.09
2018-03-25T14:42:56.884Z,96965.66
2018-03-25T14:45:24.673Z,96962.41
2018-03-25T14:47:52.348Z,96966.05
2018-03-25T14:50:20.290Z,96965.53
2018-03-25T14:52:47.964Z,96958.58
2018-03-25T14:55:15.542Z,96963.19
2018-03-25T14:57:43.485Z,96960.05
2018-03-25T15:00:11.383Z,96960.30
2018-03-25T15:02:39.349Z,96964.80
2018-03-25T15:05:07.023Z,96958.44
2018-03-25T15:07:34.807Z,96957.44
2018-03-25T15:10:02.614Z,96969.82
2018-03-25T15:12:30.177Z,96969.18
2018-03-25T15:14:57.860Z,96964.34
2018-03-25T15:17:26.317Z,96965.48
2018-03-25T15:19:53.993Z,96968.09
2018-03-25T15:22:22.195Z,96968.28
2018-03-25T15:24:50.424Z,96963.34
2018-03-25T15:27:18.099Z,96967.45
2018-03-25T15:29:45.927Z,96982.32
2018-03-25T15:32:13.868Z,96981.92
2018-03-25T15:34:42.135Z,96972.34
2018-03-25T15:37:10.102Z,96978.70
2018-03-25T15:39:38.882Z,96982.28
2018-03-25T15:42:06.667Z,96982.77
2018-03-25T15:44:34.527Z,96985.43
2018-03-25T15:47:02.440Z,96983.14
2018-03-25T15:49:30.590Z,96987.73
2018-03-25T15:51:58.278Z,96990.11
2018-03-25T15:54:25.972Z,96984.78
2018-03-25T15:56:54.318Z,96981.62
2018-03-25T15:59:22.326Z,96984.98
2018-03-25T16:01:50.740Z,96983.27
2018-03-25T16:04:18.648Z,96992.28
2018-03-25T16:06:46.543Z,96990.23
2018-03-25T16:09:14.924Z,96988.72
2018-03-25T16:11:42.951Z,96993.31
2018-03-25T16:14:10.753Z,96998.89
2018-03-25T16:16:39.555Z,96993.82
2018-03-25T16:19:08.117Z,97002.42
2018-03-25T16:21:36.023Z,97005.38
2018-03-25T16:24:04.464Z,97014.70
2018-03-25T16:26:32.627Z,97014.03
2018-03-25T16:29:00.526Z,97017.36
2018-03-25T16:31:28.134Z,97013.50
2018-03-25T16:33:56.185Z,97016.94
2018-03-25T16:36:23.991Z,97026.55
2018-03-25T16:38:52.167Z,97024.41
2018-03-25T16:41:20.020Z,97022.69
2018-03-25T16:43:47.599Z,97028.14
2018-03-25T16:46:15.305Z,97031.44
2018-03-25T16:48:42.884Z,97032.80
2018-03-25T16:51:10.703Z,97039.50
2018-03-25T16:53:38.620Z,97034.58
2018-03-25T16:56:06.343Z,97032.11
2018-03-25T16:58:34.010Z,97038.28
2018-03-25T17:01:01.773Z,97036.38
2018-03-25T17:03:30.125Z,97043.59
2018-03-25T17:05:57.957Z,97046.55
2018-03-25T17:08:26.908Z,97050.86
2018-03-25T17:10:55.196Z,97057.48
2018-03-25T17:13:23.569Z,97063.68
2018-03-25T17:15:52.809Z,97063.44
2018-03-25T17:18:20.800Z,97074.94
2018-03-25T17:20:48.740Z,97073.27
2018-03-25T17:23:17.115Z,97075.77
2018-03-25T17:25:44.949Z,97084.59
2018-03-25T17:28:13.184Z,97091.56
2018-03-25T17:30:41.706Z,97096.25
2018-03-25T17:33:10.111Z,97088.05
2018-03-25T17:35:37.649Z,97093.00
2018-03-25T17:38:08.018Z,97093.70
2018-03-25T17:40:35.854Z,97092.02
2018-03-25T17:43:05.537Z,97098.94
2018-03-25T17:45:35.697Z,97101.54
2018-03-25T17:48:05.088Z,97100.56
2018-03-25T17:50:32.728Z,97108.62
2018-03-25T17:53:01.171Z,97108.69
2018-03-25T17:55:29.901Z,97105.24
2018-03-25T17:57:58.268Z,97113.27
2018-03-25T18:00:26.467Z,97116.28
2018-03-25T18:02:54.792Z,97118.09
2018-03-25T18:05:27.179Z,97121.26
2018-03-25T18:07:54.899Z,97126.11
2018-03-25T18:10:22.684Z,97125.88
2018-03-25T18:12:50.820Z,97121.00
2018-03-25T18:15:19.250Z,97131.95
2018-03-25T18:17:47.284Z,97131.34
2018-03-25T18:20:16.859Z,97140.80
2018-03-25T18:22:45.039Z,97142.65
2018-03-25T18:25:12.630Z,97140.52
2018-03-25T18:27:41.127Z,97142.19
2018-03-25T18:30:08.895Z,97145.00
2018-03-25T18:32:37.445Z,97152.39
2018-03-25T18:35:05.825Z,97151.22
2018-03-25T18:37:34.064Z,97159.58
2018-03-25T18:40:05.953Z,97163.66
2018-03-25T18:42:33.656Z,97163.66
2018-03-25T18:45:01.339Z,97165.55
2018-03-25T18:47:29.283Z,97168.77
2018-03-25T18:49:58.488Z,97177.58
2018-03-25T18:52:27.363Z,97185.94
2018-03-25T18:54:55.493Z,97190.63
2018-03-25T18:57:23.928Z,97188.95
2018-03-25T18:59:51.998Z,97195.68
2018-03-25T19:02:20.634Z,97193.30
2018-03-25T19:04:48.351Z,97194.14
2018-03-25T19:07:17.124Z,97200.77
2018-03-25T19:12:48.415Z,97206.73
2018-03-25T19:15:16.464Z,97206.32
2018-03-25T19:17:45.625Z,97210.09
2018-03-25T19:20:13.506Z,97211.34
2018-03-25T19:22:42.585Z,97214.52
2018-03-25T19:25:11.228Z,97210.33
2018-03-25T19:27:39.567Z,97213.90
2018-03-25T19:30:07.227Z,97225.57
2018-03-25T19:32:35.195Z,97217.38
2018-03-25T19:35:02.931Z,97214.08
2018-03-25T19:37:31.305Z,97218.03
2018-03-25T19:40:00.048Z,97219.83
2018-03-25T19:42:28.270Z,97223.61
2018-03-25T19:44:57.075Z,97227.91
2018-03-25T19:47:26.172Z,97223.93
2018-03-25T19:49:53.891Z,97227.84
2018-03-25T19:52:21.645Z,97233.13
2018-03-25T19:54:49.457Z,97232.14
2018-03-25T19:57:18.444Z,97230.75
2018-03-25T19:59:46.176Z,97240.56
2018-03-25T20:02:14.509Z,97241.34
2018-03-25T20:04:42.125Z,97241.98
2018-03-25T20:07:10.070Z,97245.84
2018-03-25T20:09:38.013Z,97249.34
2018-03-25T20:12:06.549Z,97250.59
2018-03-25T20:14:34.415Z,97250.23
2018-03-25T20:17:02.218Z,97251.63
2018-03-25T20:19:29.924Z,97257.14
2018-03-25T20:21:57.683Z,97260.73
2018-03-25T20:24:25.485Z,97259.98
2018-03-25T20:26:53.170Z,97266.80
2018-03-25T20:29:20.842Z,97265.42
2018-03-25T20:31:48.855Z,97264.69
2018-03-25T20:34:16.570Z,97270.27
2018-03-25T20:36:45.335Z,97273.50
2018-03-25T20:39:13.084Z,97266.27
2018-03-25T20:41:41.218Z,97269.77
2018-03-25T20:44:09.020Z,97272.22
2018-03-25T20:46:36.660Z,97272.06
2018-03-25T20:49:04.339Z,97275.62
2018-03-25T20:51:32.208Z,97285.69
2018-03-25T20:54:00.038Z,97283.95
2018-03-25T20:56:27.791Z,97283.44
2018-03-25T20:58:55.770Z,97289.06
2018-03-25T21:01:23.653Z,97283.10
2018-03-25T21:03:51.458Z,97288.35
2018-03-25T21:06:19.331Z,97284.52
2018-03-25T21:08:47.380Z,97288.98
2018-03-25T21:11:15.293Z,97287.64
2018-03-25T21:13:43.114Z,97295.45
2018-03-25T21:16:11.197Z,97297.27
2018-03-25T21:18:38.802Z,97289.08
2018-03-25T21:21:07.000Z,97290.42
2018-03-25T21:23:35.052Z,97290.31
2018-03-25T21:26:02.768Z,97297.69
2018-03-25T21:28:31.088Z,97307.28
2018-03-25T21:30:58.804Z,97304.41
2018-03-25T21:33:26.970Z,97306.22
2018-03-25T21:35:54.732Z,97308.95
2018-03-25T21:38:22.583Z,97302.49
2018-03-25T21:40:50.604Z,97303.14
2018-03-25T21:43:18.585Z,97309.87
2018-03-25T21:45:46.242Z,97306.35
2018-03-25T21:48:14.033Z,97309.41
2018-03-25T21:50:41.593Z,97307.54
2018-03-25T21:53:09.244Z,97310.21
2018-03-25T21:55:37.514Z,97310.51
2018-03-25T21:58:06.080Z,97305.59
2018-03-25T22:00:33.767Z,97313.53
2018-03-25T22:03:06.457Z,97310.52
2018-03-25T22:05:34.133Z,97312.78
2018-03-25T22:08:01.970Z,97317.11
2018-03-25T22:10:29.714Z,97316.17
2018-03-25T22:12:57.786Z,97317.92
2018-03-25T22:15:25.487Z,97320.61
2018-03-25T22:17:53.359Z,97323.52
2018-03-25T22:20:21.693Z,97327.30
2018-03-25T22:22:49.213Z,97328.36
2018-03-25T22:25:17.005Z,97326.47
2018-03-25T22:27:44.782Z,97326.98
2018-03-25T22:30:12.574Z,97323.27
2018-03-25T22:32:40.571Z,97335.42
2018-03-25T22:35:09.407Z,97328.07
2018-03-25T22:37:37.089Z,97337.56
2018-03-25T22:40:04.729Z,97336.37
2018-03-25T22:42:32.510Z,97337.81
2018-03-25T22:45:00.563Z,97336.85
2018-03-25T22:47:28.182Z,97337.48
2018-03-25T22:49:55.857Z,97336.78
2018-03-25T22:52:23.583Z,97341.40
2018-03-25T22:54:51.149Z,97351.61
2018-03-25T22:57:19.007Z,97344.14
2018-03-25T22:59:46.632Z,97343.91
2018-03-25T23:02:14.619Z,97348.28
2018-03-25T23:04:42.438Z,97337.95
2018-03-25T23:07:10.144Z,97342.06
2018-03-25T23:09:38.059Z,97347.66
2018-03-25T23:12:05.970Z,97353.06
2018-03-25T23:14:33.947Z,97354.05
2018-03-25T23:17:02.044Z,97356.13
2018-03-25T23:19:29.847Z,97352.16
2018-03-25T23:21:57.382Z,97360.62
2018-03-25T23:24:25.073Z,97348.23
2018-03-25T23:26:53.558Z,97353.47
2018-03-25T23:29:21.189Z,97365.39
2018-03-25T23:31:48.848Z,97356.74
2018-03-25T23:34:16.464Z,97358.69
2018-03-25T23:36:44.159Z,97350.12
2018-03-25T23:39:11.847Z,97352.64
2018-03-25T23:41:40.175Z,97352.94
2018-03-25T23:44:07.979Z,97352.33
2018-03-25T23:46:36.267Z,97351.91
2018-03-25T23:49:04.073Z,97357.59
2018-03-25T23:51:32.658Z,97360.27
2018-03-25T23:54:00.403Z,97361.38
2018-03-25T23:56:28.176Z,97361.23
2018-03-25T23:58:56.138Z,97356.80
